Time;durP1;ratioP1;P1;durP2;ratioP2;P2;SDS_P1;SDS_P2;PMS_P1;PMS_P2;Temp;Humidity;BMP_temperature;BMP_pressure;BME280_temperature;BME280_humidity;BME280_pressure;Samples;Min_cycle;Max_cycle;Signal;HPM_P1;HPM_P2
2022/07/13 00:02:23;;;;;;;3.08;2.10;;;20.10;99.90;;;;;;4970373;28;20030;-58
2022/07/13 00:04:49;;;;;;;2.30;2.10;;;20.00;99.90;;;;;;4970832;28;20065;-58
2022/07/13 00:07:15;;;;;;;2.70;2.20;;;20.00;99.90;;;;;;4967925;28;20025;-57
2022/07/13 00:09:40;;;;;;;2.75;2.40;;;20.00;99.90;;;;;;4969627;28;20038;-58
2022/07/13 00:12:06;;;;;;;4.68;2.28;;;20.00;99.90;;;;;;4973137;28;20199;-58
2022/07/13 00:14:31;;;;;;;3.97;2.03;;;20.00;99.90;;;;;;4970624;28;20070;-57
2022/07/13 00:16:57;;;;;;;2.97;1.92;;;20.00;99.90;;;;;;4980405;28;20042;-61
2022/07/13 00:19:23;;;;;;;3.53;2.00;;;19.90;99.90;;;;;;4975148;28;20496;-59
2022/07/13 00:21:48;;;;;;;2.53;2.05;;;19.90;99.90;;;;;;4972108;28;20035;-61
2022/07/13 00:24:14;;;;;;;3.78;1.92;;;19.90;99.90;;;;;;4968741;28;20027;-58
2022/07/13 00:26:40;;;;;;;2.83;2.08;;;19.90;99.90;;;;;;4974322;28;20094;-60
2022/07/13 00:29:06;;;;;;;2.08;1.60;;;19.90;99.90;;;;;;4973075;28;20050;-58
2022/07/13 00:31:31;;;;;;;1.90;1.73;;;19.90;99.90;;;;;;4960629;28;20050;-60
2022/07/13 00:33:57;;;;;;;5.57;2.67;;;19.90;99.90;;;;;;4991998;28;20034;-54
2022/07/13 00:36:23;;;;;;;4.88;2.30;;;19.90;99.90;;;;;;4989857;28;21219;-60
2022/07/13 00:38:48;;;;;;;2.83;2.17;;;19.90;99.90;;;;;;4995629;28;20238;-60
2022/07/13 00:41:16;;;;;;;7.45;3.35;;;19.80;99.90;;;;;;4993935;28;20022;-60
2022/07/13 00:43:42;;;;;;;3.53;2.38;;;19.70;99.90;;;;;;4984793;28;20598;-59
2022/07/13 00:46:09;;;;;;;5.43;4.03;;;19.70;99.90;;;;;;4992118;28;20023;-56
2022/07/13 00:48:34;;;;;;;3.10;2.75;;;19.70;99.90;;;;;;4998981;28;20033;-60
2022/07/13 00:51:00;;;;;;;4.15;3.28;;;19.70;99.90;;;;;;4993036;28;20035;-60
2022/07/13 00:53:26;;;;;;;3.72;3.00;;;19.70;99.90;;;;;;4997081;28;20385;-59
2022/07/13 00:55:52;;;;;;;5.60;3.15;;;19.70;99.90;;;;;;4992741;28;20043;-60
2022/07/13 00:58:18;;;;;;;6.60;2.90;;;19.70;99.90;;;;;;4996633;28;20041;-61
2022/07/13 01:00:43;;;;;;;2.88;2.50;;;19.70;99.90;;;;;;4993026;28;20041;-57
2022/07/13 01:03:09;;;;;;;4.82;2.70;;;19.70;99.90;;;;;;4991965;28;20038;-61
2022/07/13 01:05:35;;;;;;;3.35;3.05;;;19.70;99.90;;;;;;4991127;28;20023;-61
2022/07/13 01:08:04;;;;;;;3.88;2.75;;;19.70;99.90;;;;;;4994121;28;20395;-60
2022/07/13 01:10:29;;;;;;;4.63;2.50;;;19.70;99.90;;;;;;4991690;28;20499;-59
2022/07/13 01:12:55;;;;;;;7.20;2.60;;;19.60;99.90;;;;;;4990406;28;20046;-60
2022/07/13 01:15:22;;;;;;;3.97;2.67;;;19.60;99.90;;;;;;5000366;28;20033;-59
2022/07/13 01:17:48;;;;;;;3.63;2.67;;;19.60;99.90;;;;;;4991568;28;20504;-58
2022/07/13 01:20:17;;;;;;;4.18;2.53;;;19.60;99.90;;;;;;4992283;28;20034;-60
2022/07/13 01:22:45;;;;;;;3.35;2.45;;;19.60;99.90;;;;;;4992111;28;20031;-61
2022/07/13 01:25:12;;;;;;;3.72;3.13;;;19.60;99.90;;;;;;4992308;28;20042;-60
2022/07/13 01:27:39;;;;;;;5.85;2.83;;;19.50;99.90;;;;;;4989096;28;20034;-60
2022/07/13 01:30:06;;;;;;;4.22;2.85;;;19.50;99.90;;;;;;4987871;28;20158;-60
2022/07/13 01:32:52;;;;;;;3.13;2.50;;;19.50;99.90;;;;;;4966387;28;20074;-58
2022/07/13 01:35:19;;;;;;;3.17;2.35;;;19.50;99.90;;;;;;4977743;28;20649;-58
2022/07/13 01:37:45;;;;;;;4.85;3.10;;;19.50;99.90;;;;;;4975636;28;20027;-58
2022/07/13 01:40:13;;;;;;;3.72;2.92;;;19.50;99.90;;;;;;4975248;28;20029;-60
2022/07/13 01:42:43;;;;;;;3.05;2.55;;;19.50;99.90;;;;;;4984539;28;20404;-61
2022/07/13 01:45:09;;;;;;;3.35;2.60;;;19.50;99.90;;;;;;4972886;28;20042;-58
2022/07/13 01:47:39;;;;;;;3.08;2.30;;;19.50;99.90;;;;;;4969959;28;20029;-60
2022/07/13 01:50:06;;;;;;;6.53;3.15;;;19.50;99.90;;;;;;4981607;28;20093;-58
2022/07/13 01:52:33;;;;;;;3.25;2.55;;;19.50;99.90;;;;;;4969654;28;20093;-59
2022/07/13 01:54:58;;;;;;;7.25;2.35;;;19.50;99.90;;;;;;4963603;28;20027;-60
2022/07/13 01:57:24;;;;;;;3.88;2.35;;;19.50;99.90;;;;;;4965910;28;20782;-55
2022/07/13 01:59:51;;;;;;;2.63;2.17;;;19.60;99.90;;;;;;4963689;28;20027;-57
2022/07/13 02:02:16;;;;;;;2.80;1.95;;;19.50;99.90;;;;;;4970956;28;20033;-60
2022/07/13 02:04:42;;;;;;;2.63;2.40;;;19.50;99.90;;;;;;4959270;28;21700;-59
2022/07/13 02:07:08;;;;;;;4.60;2.05;;;19.50;99.90;;;;;;4976750;28;20038;-58
2022/07/13 02:09:34;;;;;;;5.00;3.03;;;19.50;99.90;;;;;;4972982;28;20065;-60
2022/07/13 02:12:00;;;;;;;3.35;2.80;;;19.50;99.90;;;;;;4971127;28;20035;-59
2022/07/13 02:14:25;;;;;;;3.35;2.60;;;19.50;99.90;;;;;;4972358;28;20034;-56
2022/07/13 02:16:51;;;;;;;2.47;2.25;;;19.50;99.90;;;;;;4980283;28;20031;-60
2022/07/13 02:19:16;;;;;;;4.18;2.88;;;19.60;99.90;;;;;;4972550;28;20054;-58
2022/07/13 02:21:42;;;;;;;3.00;2.53;;;19.60;99.90;;;;;;4971042;28;20074;-58
2022/07/13 02:24:08;;;;;;;4.18;2.65;;;19.60;99.90;;;;;;4971658;28;20508;-60
2022/07/13 02:26:33;;;;;;;4.30;2.95;;;19.50;99.90;;;;;;4970063;28;20150;-59
2022/07/13 02:28:59;;;;;;;3.75;3.03;;;19.40;99.90;;;;;;4975623;28;20034;-57
2022/07/13 02:31:25;;;;;;;8.23;2.88;;;19.30;99.90;;;;;;4973658;28;20042;-57
2022/07/13 02:33:50;;;;;;;3.20;2.80;;;19.30;99.90;;;;;;4962832;28;20508;-60
2022/07/13 02:36:16;;;;;;;3.97;3.17;;;19.20;99.90;;;;;;4972181;28;20050;-57
2022/07/13 02:38:42;;;;;;;5.13;3.42;;;19.20;99.90;;;;;;4963653;28;20245;-58
2022/07/13 02:41:07;;;;;;;5.07;3.03;;;19.10;99.90;;;;;;4975641;28;20100;-56
2022/07/13 02:43:33;;;;;;;6.25;3.38;;;19.10;99.90;;;;;;4968093;28;20023;-60
2022/07/13 02:45:58;;;;;;;7.45;3.28;;;19.10;99.90;;;;;;4976334;28;20032;-59
2022/07/13 02:48:24;;;;;;;6.00;2.67;;;19.10;99.90;;;;;;4966527;28;20038;-58
2022/07/13 02:50:50;;;;;;;2.88;2.60;;;19.10;99.90;;;;;;4968569;28;20069;-57
2022/07/13 02:53:15;;;;;;;3.83;3.00;;;19.10;99.90;;;;;;4973201;28;20177;-60
2022/07/13 02:55:41;;;;;;;5.85;2.50;;;19.10;99.90;;;;;;4975629;28;20109;-59
2022/07/13 02:58:07;;;;;;;5.35;2.63;;;19.20;99.90;;;;;;4970980;28;20161;-58
2022/07/13 03:00:33;;;;;;;6.60;2.28;;;19.10;99.90;;;;;;4971683;28;20034;-57
2022/07/13 03:02:59;;;;;;;2.63;2.10;;;19.20;99.90;;;;;;4969387;28;20625;-60
2022/07/13 03:05:25;;;;;;;6.95;3.95;;;19.20;99.90;;;;;;4945758;28;20129;-59
2022/07/13 03:07:51;;;;;;;3.38;2.30;;;19.20;99.90;;;;;;4971381;28;20027;-60
2022/07/13 03:10:16;;;;;;;2.47;2.08;;;19.20;99.90;;;;;;4977630;28;20054;-59
2022/07/13 03:12:42;;;;;;;2.80;2.45;;;19.30;99.90;;;;;;4969541;28;20062;-58
2022/07/13 03:15:08;;;;;;;2.63;2.10;;;19.30;99.90;;;;;;4969944;28;20035;-59
2022/07/13 03:17:34;;;;;;;2.63;2.42;;;19.30;99.90;;;;;;4971533;28;20374;-61
2022/07/13 03:19:59;;;;;;;3.20;2.30;;;19.30;99.90;;;;;;4971785;28;20030;-60
2022/07/13 03:22:25;;;;;;;3.17;2.33;;;19.30;99.90;;;;;;4971267;28;20034;-60
2022/07/13 03:24:50;;;;;;;4.15;2.08;;;19.30;99.90;;;;;;4970655;28;20027;-60
2022/07/13 03:27:16;;;;;;;4.90;2.08;;;19.30;99.90;;;;;;4972311;28;20112;-53
2022/07/13 03:29:42;;;;;;;2.30;2.10;;;19.30;99.90;;;;;;4969839;28;20539;-61
2022/07/13 03:32:07;;;;;;;3.42;2.00;;;19.30;99.90;;;;;;4976615;28;20566;-60
2022/07/13 03:34:33;;;;;;;2.75;2.13;;;19.40;99.90;;;;;;4954252;28;20509;-57
2022/07/13 03:36:58;;;;;;;3.67;2.22;;;19.30;99.90;;;;;;4973292;28;20030;-59
2022/07/13 03:39:24;;;;;;;3.90;2.30;;;19.30;99.90;;;;;;4970655;28;20035;-57
2022/07/13 03:41:49;;;;;;;2.58;2.10;;;19.40;99.90;;;;;;4969707;28;20030;-59
2022/07/13 03:44:15;;;;;;;3.63;2.40;;;19.40;99.90;;;;;;4971295;28;20047;-56
2022/07/13 03:46:41;;;;;;;5.65;2.28;;;19.40;99.90;;;;;;4974432;28;20015;-61
2022/07/13 03:49:06;;;;;;;2.75;2.33;;;19.40;99.90;;;;;;4974919;28;20046;-58
2022/07/13 03:51:32;;;;;;;3.42;2.70;;;19.40;99.90;;;;;;4970559;28;20031;-56
2022/07/13 03:53:57;;;;;;;4.22;2.45;;;19.40;99.90;;;;;;4981672;28;20030;-59
2022/07/13 03:56:23;;;;;;;2.20;2.00;;;19.40;99.90;;;;;;4976384;28;20046;-60
2022/07/13 03:58:49;;;;;;;3.65;2.25;;;19.40;99.90;;;;;;4969834;28;20607;-59
2022/07/13 04:01:16;;;;;;;4.38;2.25;;;19.40;99.90;;;;;;4974435;28;20041;-61
2022/07/13 04:03:42;;;;;;;2.85;2.17;;;19.40;99.90;;;;;;4969126;28;20035;-59
2022/07/13 04:06:07;;;;;;;2.83;2.50;;;19.40;99.90;;;;;;4973513;28;20026;-59
2022/07/13 04:08:33;;;;;;;4.70;2.40;;;19.40;99.90;;;;;;4969984;28;20749;-57
2022/07/13 04:10:59;;;;;;;2.40;2.20;;;19.40;99.90;;;;;;4975893;28;20162;-56
2022/07/13 04:13:24;;;;;;;5.18;2.28;;;19.50;99.90;;;;;;4971323;28;20041;-59
2022/07/13 04:15:50;;;;;;;2.80;2.13;;;19.50;99.90;;;;;;4971505;28;20106;-60
2022/07/13 04:18:15;;;;;;;3.58;2.28;;;19.50;99.90;;;;;;4969382;28;20031;-60
2022/07/13 04:20:41;;;;;;;3.08;2.75;;;19.50;99.90;;;;;;4969393;28;20031;-60
2022/07/13 04:23:07;;;;;;;2.97;2.67;;;19.50;99.90;;;;;;4970628;28;20045;-58
2022/07/13 04:25:32;;;;;;;3.15;1.90;;;19.50;99.90;;;;;;4969602;28;20478;-58
2022/07/13 04:27:58;;;;;;;4.75;2.22;;;19.50;99.90;;;;;;4968054;28;20047;-56
2022/07/13 04:30:23;;;;;;;4.25;2.25;;;19.50;99.90;;;;;;4971025;28;20037;-60
2022/07/13 04:32:49;;;;;;;3.90;2.00;;;19.50;99.90;;;;;;4977028;28;20035;-58
2022/07/13 04:35:15;;;;;;;2.28;2.08;;;19.60;99.90;;;;;;4952765;28;20054;-60
2022/07/13 04:37:41;;;;;;;4.97;2.08;;;19.60;99.90;;;;;;4972411;28;20030;-61
2022/07/13 04:40:07;;;;;;;4.32;2.15;;;19.60;99.90;;;;;;4974051;28;20049;-60
2022/07/13 04:42:33;;;;;;;3.55;2.30;;;19.60;99.90;;;;;;4969526;28;20054;-60
2022/07/13 04:44:58;;;;;;;3.20;2.15;;;19.70;99.90;;;;;;4965378;28;20400;-60
2022/07/13 04:47:24;;;;;;;2.42;2.00;;;19.80;99.90;;;;;;4971955;28;20026;-60
2022/07/13 04:49:50;;;;;;;2.67;2.45;;;19.80;99.90;;;;;;4969509;28;20046;-60
2022/07/13 04:52:16;;;;;;;3.67;2.05;;;19.80;99.90;;;;;;4971517;28;20031;-59
2022/07/13 04:54:41;;;;;;;3.45;2.10;;;19.90;99.90;;;;;;4968070;28;20042;-61
2022/07/13 04:57:07;;;;;;;7.82;2.03;;;20.00;99.90;;;;;;4973390;28;20405;-62
2022/07/13 04:59:32;;;;;;;2.95;2.13;;;20.00;99.90;;;;;;4970648;28;20042;-59
2022/07/13 05:01:58;;;;;;;6.78;2.72;;;20.00;99.90;;;;;;4976527;28;20090;-58
2022/07/13 05:04:24;;;;;;;4.55;2.33;;;20.00;99.90;;;;;;4973102;28;20023;-61
2022/07/13 05:06:50;;;;;;;2.60;1.90;;;20.00;99.90;;;;;;4977789;28;20074;-60
2022/07/13 05:09:15;;;;;;;2.42;2.22;;;20.00;99.90;;;;;;4973794;28;20035;-61
2022/07/13 05:11:41;;;;;;;3.08;2.10;;;20.00;99.90;;;;;;4974830;28;20564;-61
2022/07/13 05:14:07;;;;;;;4.32;2.33;;;20.00;99.90;;;;;;4973773;28;20026;-61
2022/07/13 05:16:32;;;;;;;3.65;2.28;;;20.00;99.90;;;;;;4974723;28;20105;-61
2022/07/13 05:18:58;;;;;;;3.25;2.35;;;20.10;99.90;;;;;;4978542;28;20074;-58
2022/07/13 05:21:23;;;;;;;2.20;1.95;;;20.10;99.90;;;;;;4971934;28;20662;-58
2022/07/13 05:23:49;;;;;;;7.78;2.67;;;20.20;99.90;;;;;;4973043;28;20043;-60
2022/07/13 05:26:15;;;;;;;2.72;2.25;;;20.20;99.90;;;;;;4972532;28;20034;-60
2022/07/13 05:28:41;;;;;;;7.05;2.50;;;20.30;99.90;;;;;;4978959;28;20035;-60
2022/07/13 05:31:08;;;;;;;3.47;2.20;;;20.30;99.90;;;;;;4972923;28;20077;-55
2022/07/13 05:33:33;;;;;;;4.50;2.20;;;20.40;99.90;;;;;;4956027;28;21975;-61
2022/07/13 05:36:04;;;;;;;3.50;2.38;;;20.50;99.90;;;;;;4971457;28;20041;-61
2022/07/13 05:38:29;;;;;;;3.33;2.35;;;20.60;99.90;;;;;;4972303;28;20508;-60
2022/07/13 05:40:55;;;;;;;3.67;1.92;;;20.60;99.90;;;;;;4974372;28;20043;-60
2022/07/13 05:43:21;;;;;;;4.22;2.42;;;20.70;99.90;;;;;;4973969;28;20022;-60
2022/07/13 05:45:47;;;;;;;3.20;2.15;;;20.80;99.90;;;;;;4970498;28;20030;-60
2022/07/13 05:48:12;;;;;;;4.88;2.40;;;20.80;99.90;;;;;;4978770;28;20380;-56
2022/07/13 05:50:38;;;;;;;2.78;2.20;;;20.90;99.90;;;;;;4978872;28;20011;-56
2022/07/13 05:53:03;;;;;;;4.20;2.30;;;21.00;99.90;;;;;;4975717;28;20543;-56
2022/07/13 05:55:29;;;;;;;2.90;1.85;;;21.10;99.90;;;;;;4977188;28;20113;-59
2022/07/13 05:57:54;;;;;;;3.20;1.90;;;21.20;99.90;;;;;;4976494;28;20026;-60
2022/07/13 06:00:20;;;;;;;7.30;2.20;;;21.40;99.90;;;;;;4972624;28;20027;-60
2022/07/13 06:02:46;;;;;;;2.88;1.90;;;21.50;99.90;;;;;;4972175;28;20582;-58
2022/07/13 06:05:11;;;;;;;4.65;1.80;;;21.70;99.90;;;;;;4974085;28;20030;-60
2022/07/13 06:07:37;;;;;;;3.03;1.98;;;21.80;99.90;;;;;;4971790;28;20396;-61
2022/07/13 06:10:06;;;;;;;3.03;2.03;;;21.90;99.90;;;;;;4973427;28;20106;-58
2022/07/13 06:12:32;;;;;;;4.90;1.70;;;21.90;99.90;;;;;;4971945;28;20432;-60
2022/07/13 06:14:58;;;;;;;2.65;1.67;;;22.00;99.90;;;;;;4973370;28;20579;-60
2022/07/13 06:17:24;;;;;;;2.63;1.80;;;22.00;99.90;;;;;;4972862;28;20041;-61
2022/07/13 06:19:50;;;;;;;5.57;1.55;;;22.00;99.90;;;;;;4972842;28;20038;-61
2022/07/13 06:22:16;;;;;;;2.47;1.83;;;22.00;99.90;;;;;;4970949;28;20093;-59
2022/07/13 06:24:43;;;;;;;2.97;1.63;;;22.20;99.90;;;;;;4972057;28;20018;-60
2022/07/13 06:27:10;;;;;;;3.50;1.50;;;22.20;99.90;;;;;;4976574;28;20023;-61
2022/07/13 06:29:35;;;;;;;7.07;1.77;;;22.40;99.90;;;;;;4975229;28;20027;-60
2022/07/13 06:32:01;;;;;;;2.70;1.67;;;22.50;99.40;;;;;;4971854;28;20034;-59
2022/07/13 06:34:26;;;;;;;2.28;1.65;;;22.80;99.50;;;;;;4954868;28;20055;-62
2022/07/13 06:36:52;;;;;;;1.98;1.75;;;22.90;99.90;;;;;;4969679;28;20030;-58
2022/07/13 06:39:18;;;;;;;3.63;1.52;;;23.10;99.80;;;;;;4972840;28;20128;-58
2022/07/13 06:41:45;;;;;;;3.67;1.30;;;23.20;99.00;;;;;;4971755;28;20030;-61
2022/07/13 06:44:11;;;;;;;4.80;2.42;;;23.40;99.50;;;;;;4969779;28;20030;-61
2022/07/13 06:46:37;;;;;;;1.80;1.40;;;24.10;98.50;;;;;;4973499;28;20019;-59
2022/07/13 06:49:03;;;;;;;3.85;1.35;;;25.30;93.40;;;;;;4971581;28;20030;-59
2022/07/13 06:51:28;;;;;;;3.47;1.42;;;26.40;92.20;;;;;;4971258;28;20062;-59
2022/07/13 06:53:54;;;;;;;1.40;1.20;;;27.00;90.40;;;;;;4974869;28;20034;-60
2022/07/13 06:56:20;;;;;;;2.80;1.38;;;27.20;90.00;;;;;;4976185;28;20031;-61
2022/07/13 06:58:46;;;;;;;2.50;1.50;;;27.20;88.60;;;;;;4979618;28;20057;-61
2022/07/13 07:01:12;;;;;;;3.65;1.05;;;27.20;88.20;;;;;;4978476;28;20031;-61
2022/07/13 07:03:38;;;;;;;4.38;1.25;;;26.90;89.00;;;;;;4974843;28;20681;-60
2022/07/13 07:06:04;;;;;;;1.85;1.27;;;26.70;85.50;;;;;;4969661;28;20477;-61
2022/07/13 07:08:30;;;;;;;2.25;1.13;;;26.60;86.30;;;;;;4971682;28;20062;-56
2022/07/13 07:10:56;;;;;;;1.45;1.35;;;26.90;87.50;;;;;;4972679;28;20073;-60
2022/07/13 07:13:21;;;;;;;3.47;1.60;;;26.90;87.10;;;;;;4974322;28;20126;-60
2022/07/13 07:15:47;;;;;;;2.55;1.20;;;26.90;86.80;;;;;;4971612;28;20141;-62
2022/07/13 07:18:12;;;;;;;2.83;1.30;;;26.70;86.40;;;;;;4969227;28;20377;-61
2022/07/13 07:20:39;;;;;;;1.70;1.30;;;26.70;86.00;;;;;;4971147;28;20038;-61
2022/07/13 07:23:04;;;;;;;3.55;1.40;;;26.90;87.50;;;;;;4973730;28;20523;-60
2022/07/13 07:25:30;;;;;;;2.97;1.73;;;27.10;85.10;;;;;;4973301;28;20043;-56
2022/07/13 07:27:55;;;;;;;1.75;1.52;;;27.20;83.10;;;;;;4968871;28;20027;-59
2022/07/13 07:30:21;;;;;;;2.65;1.45;;;27.20;84.60;;;;;;4971255;28;20026;-59
2022/07/13 07:32:47;;;;;;;5.32;1.27;;;27.50;83.30;;;;;;4972673;28;20062;-61
2022/07/13 07:35:12;;;;;;;3.55;1.30;;;27.70;81.90;;;;;;4954728;28;20551;-61
2022/07/13 07:37:39;;;;;;;7.05;1.30;;;28.40;81.80;;;;;;4970244;28;20083;-61
2022/07/13 07:40:07;;;;;;;8.23;1.95;;;28.90;79.70;;;;;;4977084;28;20034;-61
2022/07/13 07:42:33;;;;;;;10.30;1.58;;;29.20;78.00;;;;;;4970080;28;20473;-61
2022/07/13 07:44:58;;;;;;;3.80;1.35;;;29.00;78.00;;;;;;4968501;28;20035;-59
2022/07/13 07:47:25;;;;;;;4.40;1.30;;;28.70;77.60;;;;;;4973972;28;20031;-60
2022/07/13 07:49:54;;;;;;;4.35;1.20;;;28.80;77.70;;;;;;4978793;28;20488;-61
2022/07/13 07:52:20;;;;;;;2.35;1.30;;;28.50;77.60;;;;;;4974896;28;20117;-60
2022/07/13 07:54:47;;;;;;;6.63;1.30;;;28.70;78.30;;;;;;4971214;28;20088;-60
2022/07/13 07:57:14;;;;;;;4.57;1.27;;;29.50;76.80;;;;;;4979385;28;20062;-61
2022/07/13 07:59:39;;;;;;;3.20;1.30;;;29.40;75.50;;;;;;4978203;28;20027;-58
2022/07/13 08:02:05;;;;;;;1.55;1.20;;;29.50;77.40;;;;;;4969732;28;20483;-62
2022/07/13 08:04:31;;;;;;;2.63;1.50;;;29.40;77.20;;;;;;4969370;28;20038;-58
2022/07/13 08:06:57;;;;;;;2.05;1.30;;;28.90;76.60;;;;;;4970172;28;20657;-61
2022/07/13 08:09:22;;;;;;;4.72;1.30;;;28.50;77.40;;;;;;4976201;28;20059;-61
2022/07/13 08:11:48;;;;;;;6.78;1.60;;;28.50;78.70;;;;;;4968736;28;20106;-61
2022/07/13 08:14:15;;;;;;;1.88;1.20;;;28.50;78.90;;;;;;4969757;28;20054;-60
2022/07/13 08:16:41;;;;;;;1.90;1.30;;;28.30;80.70;;;;;;4972129;28;20034;-60
2022/07/13 08:19:06;;;;;;;3.25;1.40;;;27.70;79.20;;;;;;4972767;28;20042;-57
2022/07/13 08:21:34;;;;;;;1.70;1.45;;;27.20;80.90;;;;;;4970677;28;20102;-61
2022/07/13 08:23:59;;;;;;;4.25;1.30;;;26.90;83.70;;;;;;4971023;28;20171;-61
2022/07/13 08:26:30;;;;;;;1.63;1.30;;;26.60;87.70;;;;;;4973467;28;20084;-57
2022/07/13 08:28:57;;;;;;;6.93;1.90;;;26.20;88.50;;;;;;4972979;28;20026;-61
2022/07/13 08:31:24;;;;;;;9.20;2.05;;;25.90;91.20;;;;;;4970869;28;20085;-60
2022/07/13 08:39:20;;;;;;;2.75;1.95;;;25.20;94.80;;;;;;4984887;28;20042;-59
2022/07/13 08:41:47;;;;;;;3.72;1.88;;;25.20;97.20;;;;;;4978410;28;20038;-61
2022/07/13 08:44:12;;;;;;;2.63;1.50;;;25.10;96.60;;;;;;4976316;28;20026;-59
2022/07/13 08:46:39;;;;;;;2.55;1.63;;;25.40;96.40;;;;;;4980300;28;20105;-61
2022/07/13 08:49:04;;;;;;;12.18;1.90;;;25.60;97.80;;;;;;4970634;28;20030;-58
2022/07/13 08:51:35;;;;;;;4.75;1.50;;;25.90;94.40;;;;;;4979087;28;21750;-61
2022/07/13 08:54:04;;;;;;;2.10;1.45;;;26.60;94.10;;;;;;4973036;28;20031;-61
2022/07/13 08:56:32;;;;;;;3.80;1.70;;;27.60;93.80;;;;;;4971921;28;21283;-63
2022/07/13 08:58:58;;;;;;;2.47;1.30;;;29.20;90.30;;;;;;4970570;28;20726;-62
2022/07/13 09:01:24;;;;;;;5.78;1.38;;;30.70;82.10;;;;;;4974541;28;20026;-62
2022/07/13 09:03:49;;;;;;;1.75;1.60;;;32.50;76.60;;;;;;4974071;28;20031;-60
2022/07/13 09:06:54;;;;;;;2.30;1.35;;;33.70;71.30;;;;;;4971228;28;20189;-59
2022/07/13 09:09:35;;;;;;;3.13;1.75;;;35.10;69.30;;;;;;4969630;28;20484;-58
2022/07/13 09:12:18;;;;;;;8.47;1.40;;;34.60;69.80;;;;;;4971790;28;20068;-60
2022/07/13 09:14:51;;;;;;;2.95;1.45;;;34.40;66.70;;;;;;4974142;28;20113;-60
2022/07/13 09:17:34;;;;;;;6.38;1.30;;;34.90;66.60;;;;;;4980232;28;20093;-59
2022/07/13 09:20:19;;;;;;;;;;;34.40;65.10;;;;;;4973502;28;20498;-60
2022/07/13 09:22:55;;;;;;;7.60;1.52;;;34.20;66.40;;;;;;4973254;28;19921;-60
2022/07/13 09:25:31;;;;;;;3.47;1.63;;;33.90;65.70;;;;;;4975028;28;20496;-60
2022/07/13 09:28:00;;;;;;;5.68;1.45;;;33.60;64.60;;;;;;4968959;28;20030;-60
2022/07/13 09:30:26;;;;;;;9.50;1.55;;;33.10;66.50;;;;;;4967853;28;20370;-62
2022/07/13 09:32:54;;;;;;;4.10;1.70;;;32.60;68.00;;;;;;4973941;28;20034;-63
2022/07/13 09:35:21;;;;;;;11.23;1.45;;;31.90;67.50;;;;;;4956843;28;20122;-63
2022/07/13 09:37:47;;;;;;;5.70;1.55;;;31.50;68.40;;;;;;4973381;28;20030;-62
2022/07/13 09:40:17;;;;;;;5.50;2.00;;;30.90;69.20;;;;;;4997532;23;21072;-59
2022/07/13 09:42:44;;;;;;;3.67;1.65;;;30.60;68.00;;;;;;4967028;28;20042;-60
2022/07/13 09:47:58;;;;;;;2.08;1.45;;;30.10;70.50;;;;;;4970353;28;20037;-60
2022/07/13 09:50:35;;;;;;;2.95;1.77;;;30.20;69.70;;;;;;4968501;28;20397;-60
2022/07/13 09:53:01;;;;;;;7.25;2.22;;;30.30;69.80;;;;;;4970406;28;20041;-60
2022/07/13 09:55:28;;;;;;;9.80;1.88;;;30.50;69.00;;;;;;4971652;28;20023;-59
2022/07/13 09:57:59;;;;;;;4.28;1.80;;;30.60;70.10;;;;;;4975321;28;20023;-60
2022/07/13 10:00:27;;;;;;;4.20;1.40;;;30.90;69.80;;;;;;4971049;28;20041;-60
2022/07/13 10:02:53;;;;;;;5.82;1.70;;;31.50;68.20;;;;;;4971954;28;20547;-60
2022/07/13 10:05:19;;;;;;;4.28;1.42;;;31.60;66.70;;;;;;4971943;28;20030;-60
2022/07/13 10:07:47;;;;;;;2.00;1.60;;;31.80;66.80;;;;;;4976194;28;20050;-60
2022/07/13 10:10:16;;;;;;;3.17;1.77;;;32.20;65.90;;;;;;4969735;28;20027;-60
2022/07/13 10:12:43;;;;;;;8.55;1.83;;;32.60;65.10;;;;;;4970007;28;20046;-60
2022/07/13 10:15:11;;;;;;;10.77;1.90;;;33.00;65.40;;;;;;4971697;28;20033;-60
2022/07/13 10:17:38;;;;;;;7.20;1.75;;;32.90;64.40;;;;;;4973115;28;20097;-60
2022/07/13 10:20:13;;;;;;;6.25;1.55;;;33.00;64.70;;;;;;4971147;28;20035;-60
2022/07/13 10:22:43;;;;;;;6.03;1.58;;;32.60;65.00;;;;;;4962864;28;20030;-60
2022/07/13 10:25:09;;;;;;;5.30;1.70;;;32.80;66.90;;;;;;4967076;28;20063;-60
2022/07/13 10:27:36;;;;;;;4.30;1.60;;;32.80;66.00;;;;;;4967271;28;20031;-60
2022/07/13 10:30:08;;;;;;;3.55;1.67;;;32.40;64.00;;;;;;4968586;28;20552;-60
2022/07/13 10:32:36;;;;;;;3.77;1.97;;;32.30;67.10;;;;;;4971113;28;20409;-60
2022/07/13 10:35:17;;;;;;;3.03;1.60;;;32.20;65.10;;;;;;4970673;28;20037;-60
2022/07/13 10:37:58;;;;;;;7.07;1.80;;;32.00;63.90;;;;;;4967257;28;20045;-60
2022/07/13 10:40:28;;;;;;;8.00;2.30;;;32.10;63.70;;;;;;4970888;28;20035;-59
2022/07/13 10:42:53;;;;;;;4.95;1.95;;;32.10;63.70;;;;;;4970569;28;20122;-59
2022/07/13 10:45:34;;;;;;;8.70;1.88;;;31.90;63.60;;;;;;4969787;28;20089;-60
2022/07/13 10:48:05;;;;;;;5.60;1.98;;;32.00;63.40;;;;;;4977396;28;20034;-60
2022/07/13 10:50:43;;;;;;;9.70;2.17;;;32.00;62.00;;;;;;4969417;28;20041;-60
2022/07/13 10:53:09;;;;;;;10.93;2.17;;;31.60;61.60;;;;;;4966958;28;20059;-60
2022/07/13 10:55:35;;;;;;;4.35;1.63;;;31.80;60.90;;;;;;4968495;28;20065;-60
2022/07/13 10:58:31;;;;;;;5.25;1.98;;;31.80;62.10;;;;;;4968672;28;20096;-60
2022/07/13 11:01:02;;;;;;;9.20;2.03;;;31.50;61.80;;;;;;4962310;28;20523;-60
2022/07/13 11:03:31;;;;;;;14.48;2.13;;;31.20;60.80;;;;;;4970215;28;20035;-59
2022/07/13 11:06:17;;;;;;;7.90;1.90;;;31.30;63.40;;;;;;4970411;28;20038;-60
2022/07/13 11:08:43;;;;;;;9.45;2.47;;;31.60;62.00;;;;;;4965830;28;20381;-60
2022/07/13 11:11:15;;;;;;;8.90;2.00;;;31.70;61.90;;;;;;4970607;28;20027;-60
2022/07/13 11:13:45;;;;;;;8.00;1.75;;;31.80;61.30;;;;;;4971323;28;20384;-58
2022/07/13 11:16:13;;;;;;;9.32;2.25;;;32.30;60.40;;;;;;4969764;28;20110;-60
2022/07/13 11:18:41;;;;;;;11.05;2.28;;;32.40;60.50;;;;;;4971198;28;20089;-59
2022/07/13 11:21:22;;;;;;;9.32;1.55;;;32.10;58.40;;;;;;4970193;28;20061;-57
2022/07/13 11:27:06;;;;;;;9.02;2.30;;;31.80;58.90;;;;;;4966118;28;20058;-58
2022/07/13 11:29:34;;;;;;;6.97;1.70;;;31.90;59.40;;;;;;4972044;28;20077;-60
2022/07/13 11:32:02;;;;;;;8.13;1.92;;;32.10;58.30;;;;;;4967032;28;20034;-60
2022/07/13 11:34:29;;;;;;;5.40;1.60;;;32.70;58.70;;;;;;4968513;28;20027;-59
2022/07/13 11:36:57;;;;;;;6.63;1.73;;;32.80;58.00;;;;;;4965942;28;20041;-60
2022/07/13 11:39:26;;;;;;;6.90;1.95;;;32.80;58.00;;;;;;4995760;28;20484;-60
2022/07/13 11:41:56;;;;;;;8.15;2.53;;;32.80;58.00;;;;;;4986560;28;20049;-61
2022/07/13 11:44:26;;;;;;;5.88;1.45;;;33.00;60.00;;;;;;4986618;28;20022;-60
2022/07/13 11:46:54;;;;;;;6.28;1.48;;;32.90;56.60;;;;;;4981556;28;20026;-60
2022/07/13 11:49:21;;;;;;;3.85;1.73;;;32.70;58.60;;;;;;4987439;28;20022;-60
2022/07/13 11:51:48;;;;;;;3.13;1.52;;;32.20;58.10;;;;;;4985989;28;20058;-60
2022/07/13 11:54:19;;;;;;;4.80;1.50;;;32.10;58.90;;;;;;4986835;28;20117;-58
2022/07/13 11:56:53;;;;;;;4.63;1.48;;;32.20;59.70;;;;;;4983599;28;20026;-60
2022/07/13 12:00:04;;;;;;;4.85;1.67;;;32.20;59.60;;;;;;4983602;28;20472;-60
2022/07/13 12:02:30;;;;;;;5.82;1.95;;;32.20;59.30;;;;;;4982647;28;20031;-60
2022/07/13 12:04:56;;;;;;;5.22;1.75;;;32.30;58.80;;;;;;4985334;28;20084;-59
2022/07/13 12:07:32;;;;;;;3.35;1.20;;;32.40;58.50;;;;;;4987504;28;20030;-59
2022/07/13 12:10:04;;;;;;;6.68;1.30;;;32.70;57.90;;;;;;4985914;28;20546;-60
2022/07/13 12:12:31;;;;;;;4.23;2.03;;;32.50;57.90;;;;;;5000725;28;20101;-60
2022/07/13 12:14:58;;;;;;;11.10;2.20;;;32.30;57.60;;;;;;4986621;28;20060;-60
2022/07/13 12:17:26;;;;;;;3.88;1.92;;;32.10;57.80;;;;;;4987704;28;20018;-59
2022/07/13 12:19:52;;;;;;;5.65;1.83;;;32.20;58.30;;;;;;4988145;28;20042;-61
2022/07/13 12:22:22;;;;;;;2.88;1.80;;;32.40;58.60;;;;;;4987851;28;20568;-59
2022/07/13 12:24:48;;;;;;;8.35;1.38;;;32.70;59.60;;;;;;4986235;28;20022;-59
2022/07/13 12:27:28;;;;;;;7.25;2.38;;;33.00;57.40;;;;;;4990456;28;20081;-59
2022/07/13 12:30:11;;;;;;;9.15;1.60;;;32.90;58.00;;;;;;4991413;28;20392;-59
2022/07/13 12:33:00;;;;;;;8.90;2.05;;;33.10;57.70;;;;;;4990855;28;20050;-59
2022/07/13 12:35:37;;;;;;;3.13;1.58;;;32.80;58.20;;;;;;4993471;28;20109;-59
2022/07/13 12:38:08;;;;;;;3.42;1.60;;;32.70;58.70;;;;;;4975635;28;20046;-60
2022/07/13 12:40:44;;;;;;;4.97;1.38;;;32.70;58.70;;;;;;4993386;28;20034;-60
2022/07/13 12:43:23;;;;;;;6.85;1.70;;;32.70;57.90;;;;;;4981255;28;20444;-59
2022/07/13 12:45:54;;;;;;;2.92;1.50;;;32.50;58.80;;;;;;4989361;28;20031;-58
2022/07/13 12:48:28;;;;;;;6.97;1.58;;;32.70;58.90;;;;;;4990327;28;20018;-58
2022/07/13 12:51:08;;;;;;;1.90;1.00;;;32.70;59.40;;;;;;4987861;28;20445;-58
2022/07/13 12:53:51;;;;;;;4.65;1.50;;;32.70;59.30;;;;;;4991662;28;20032;-58
2022/07/13 12:56:19;;;;;;;3.88;1.33;;;32.90;59.20;;;;;;4989404;28;20116;-60
2022/07/13 12:58:47;;;;;;;3.45;1.30;;;33.10;57.90;;;;;;4991743;28;20036;-60
2022/07/13 13:01:33;;;;;;;3.88;1.83;;;33.20;58.90;;;;;;4985200;28;20193;-60
2022/07/13 13:04:00;;;;;;;10.13;1.80;;;33.20;57.80;;;;;;4982722;28;20125;-60